sensor_id;sensor_type;location;lat;lon;timestamp;pressure;altitude;pressure_sealevel;temperature;humidity
5298;BME280;14738;42.668;23.250;2023-08-30T00:01:51;48334.72;;;-141.90;54.94
5298;BME280;14738;42.668;23.250;2023-08-30T00:04:17;48426.03;;;-141.90;55.20
5298;BME280;14738;42.668;23.250;2023-08-30T00:06:42;48420.09;;;-141.90;55.05
5298;BME280;14738;42.668;23.250;2023-08-30T00:09:08;48408.16;;;-141.90;55.33
5298;BME280;14738;42.668;23.250;2023-08-30T00:11:33;48414.13;;;-141.90;55.46
5298;BME280;14738;42.668;23.250;2023-08-30T00:14:03;48406.19;;;-141.90;55.54
5298;BME280;14738;42.668;23.250;2023-08-30T00:16:31;48398.25;;;-141.90;54.94
5298;BME280;14738;42.668;23.250;2023-08-30T00:18:57;48433.97;;;-141.90;55.41
5298;BME280;14738;42.668;23.250;2023-08-30T00:21:22;48410.16;;;-141.90;54.65
5298;BME280;14738;42.668;23.250;2023-08-30T00:23:48;48408.16;;;-141.90;52.93
5298;BME280;14738;42.668;23.250;2023-08-30T00:26:13;48366.47;;;-141.90;52.60
5298;BME280;14738;42.668;23.250;2023-08-30T00:28:39;48463.75;;;-141.90;51.89
5298;BME280;14738;42.668;23.250;2023-08-30T00:31:04;48416.09;;;-141.90;51.99
5298;BME280;14738;42.668;23.250;2023-08-30T00:33:30;48370.44;;;-141.90;51.89
5298;BME280;14738;42.668;23.250;2023-08-30T00:35:59;48408.16;;;-141.90;52.42
5298;BME280;14738;42.668;23.250;2023-08-30T00:38:26;48418.09;;;-141.90;51.99
5298;BME280;14738;42.668;23.250;2023-08-30T00:40:52;48406.19;;;-141.90;51.62
5298;BME280;14738;42.668;23.250;2023-08-30T00:43:19;48382.34;;;-141.90;51.87
5298;BME280;14738;42.668;23.250;2023-08-30T00:45:44;48376.41;;;-141.90;51.50
5298;BME280;14738;42.668;23.250;2023-08-30T00:48:11;48396.25;;;-141.90;51.91
5298;BME280;14738;42.668;23.250;2023-08-30T00:50:37;48398.25;;;-141.90;52.17
5298;BME280;14738;42.668;23.250;2023-08-30T00:53:03;48410.16;;;-141.90;52.02
5298;BME280;14738;42.668;23.250;2023-08-30T00:55:32;48398.25;;;-141.90;52.50
5298;BME280;14738;42.668;23.250;2023-08-30T00:57:59;48396.25;;;-141.90;52.56
5298;BME280;14738;42.668;23.250;2023-08-30T01:00:25;48410.16;;;-141.90;51.75
5298;BME280;14738;42.668;23.250;2023-08-30T01:02:53;48418.09;;;-141.90;52.59
5298;BME280;14738;42.668;23.250;2023-08-30T01:05:19;48408.16;;;-141.90;51.30
5298;BME280;14738;42.668;23.250;2023-08-30T01:07:44;48412.13;;;-141.90;52.01
5298;BME280;14738;42.668;23.250;2023-08-30T01:10:10;48376.41;;;-141.90;51.25
5298;BME280;14738;42.668;23.250;2023-08-30T01:12:49;48384.34;;;-141.90;51.38
5298;BME280;14738;42.668;23.250;2023-08-30T01:15:19;48404.19;;;-141.90;51.16
5298;BME280;14738;42.668;23.250;2023-08-30T01:17:50;48414.13;;;-141.90;50.86
5298;BME280;14738;42.668;23.250;2023-08-30T01:20:18;48390.31;;;-141.90;50.94
5298;BME280;14738;42.668;23.250;2023-08-30T01:28:08;48398.25;;;-141.90;50.79
5298;BME280;14738;42.668;23.250;2023-08-30T01:30:37;48308.91;;;-141.90;51.27
5298;BME280;14738;42.668;23.250;2023-08-30T01:33:04;48406.19;;;-141.90;51.15
5298;BME280;14738;42.668;23.250;2023-08-30T01:35:32;48356.56;;;-141.90;51.30
5298;BME280;14738;42.668;23.250;2023-08-30T01:38:03;48392.28;;;-141.90;51.69
5298;BME280;14738;42.668;23.250;2023-08-30T01:40:35;48418.09;;;-141.90;51.87
5298;BME280;14738;42.668;23.250;2023-08-30T01:43:01;48406.19;;;-141.90;52.20
5298;BME280;14738;42.668;23.250;2023-08-30T01:45:29;48410.16;;;-141.90;52.45
5298;BME280;14738;42.668;23.250;2023-08-30T01:47:56;48404.19;;;-141.90;51.53
5298;BME280;14738;42.668;23.250;2023-08-30T01:50:22;48378.38;;;-141.90;51.71
5298;BME280;14738;42.668;23.250;2023-08-30T01:52:49;48404.19;;;-141.90;51.77
5298;BME280;14738;42.668;23.250;2023-08-30T01:55:17;48390.31;;;-141.90;51.13
5298;BME280;14738;42.668;23.250;2023-08-30T01:57:43;48410.16;;;-141.90;50.89
5298;BME280;14738;42.668;23.250;2023-08-30T02:00:09;48384.34;;;-141.90;50.52
5298;BME280;14738;42.668;23.250;2023-08-30T02:02:34;48402.22;;;-141.90;51.33
5298;BME280;14738;42.668;23.250;2023-08-30T02:05:00;48374.41;;;-141.90;51.82
5298;BME280;14738;42.668;23.250;2023-08-30T02:10:17;48386.34;;;-141.90;51.42
5298;BME280;14738;42.668;23.250;2023-08-30T02:12:48;48394.28;;;-141.90;52.25
5298;BME280;14738;42.668;23.250;2023-08-30T02:15:15;48366.47;;;-141.90;52.41
5298;BME280;14738;42.668;23.250;2023-08-30T02:17:41;48398.25;;;-141.90;52.98
5298;BME280;14738;42.668;23.250;2023-08-30T02:20:07;48416.09;;;-141.90;53.54
5298;BME280;14738;42.668;23.250;2023-08-30T02:22:33;48370.44;;;-141.90;52.78
5298;BME280;14738;42.668;23.250;2023-08-30T02:24:59;48388.31;;;-141.90;52.62
5298;BME280;14738;42.668;23.250;2023-08-30T02:27:32;48322.81;;;-141.90;52.98
5298;BME280;14738;42.668;23.250;2023-08-30T02:29:58;48400.22;;;-141.90;53.16
5298;BME280;14738;42.668;23.250;2023-08-30T02:32:24;48374.41;;;-141.90;52.46
5298;BME280;14738;42.668;23.250;2023-08-30T02:34:51;48390.31;;;-141.90;52.73
5298;BME280;14738;42.668;23.250;2023-08-30T02:37:17;48402.22;;;-141.90;52.93
5298;BME280;14738;42.668;23.250;2023-08-30T02:39:42;48398.25;;;-141.90;52.29
5298;BME280;14738;42.668;23.250;2023-08-30T02:42:08;48400.22;;;-141.90;52.03
5298;BME280;14738;42.668;23.250;2023-08-30T02:44:33;48386.34;;;-141.90;52.44
5298;BME280;14738;42.668;23.250;2023-08-30T02:46:59;48388.31;;;-141.90;52.50
5298;BME280;14738;42.668;23.250;2023-08-30T02:49:24;48386.34;;;-141.90;52.77
5298;BME280;14738;42.668;23.250;2023-08-30T02:51:50;48358.53;;;-141.90;52.14
5298;BME280;14738;42.668;23.250;2023-08-30T02:54:15;48406.19;;;-141.90;53.37
5298;BME280;14738;42.668;23.250;2023-08-30T02:56:42;48374.41;;;-141.90;53.12
5298;BME280;14738;42.668;23.250;2023-08-30T02:59:11;48390.31;;;-141.90;53.40
5298;BME280;14738;42.668;23.250;2023-08-30T03:01:37;48406.19;;;-141.90;54.36
5298;BME280;14738;42.668;23.250;2023-08-30T03:04:05;48384.34;;;-141.90;53.81
5298;BME280;14738;42.668;23.250;2023-08-30T03:06:32;48402.22;;;-141.90;53.15
5298;BME280;14738;42.668;23.250;2023-08-30T03:08:58;48402.22;;;-141.90;53.32
5298;BME280;14738;42.668;23.250;2023-08-30T03:11:23;48388.31;;;-141.90;53.26
5298;BME280;14738;42.668;23.250;2023-08-30T03:13:49;48402.22;;;-141.90;53.94
5298;BME280;14738;42.668;23.250;2023-08-30T03:16:16;48378.38;;;-141.90;53.13
5298;BME280;14738;42.668;23.250;2023-08-30T03:18:43;48370.44;;;-141.90;52.99
5298;BME280;14738;42.668;23.250;2023-08-30T03:21:10;48378.38;;;-141.90;52.14
5298;BME280;14738;42.668;23.250;2023-08-30T03:23:36;48422.06;;;-141.90;53.00
5298;BME280;14738;42.668;23.250;2023-08-30T03:26:15;48402.22;;;-141.90;54.86
5298;BME280;14738;42.668;23.250;2023-08-30T03:28:42;48376.41;;;-141.90;54.61
5298;BME280;14738;42.668;23.250;2023-08-30T03:31:15;48376.41;;;-141.90;54.77
5298;BME280;14738;42.668;23.250;2023-08-30T03:33:42;48360.53;;;-141.90;54.10
5298;BME280;14738;42.668;23.250;2023-08-30T03:36:10;48318.84;;;-141.90;54.03
5298;BME280;14738;42.668;23.250;2023-08-30T03:38:36;48386.34;;;-141.90;54.55
5298;BME280;14738;42.668;23.250;2023-08-30T03:41:05;48396.25;;;-141.90;55.38
5298;BME280;14738;42.668;23.250;2023-08-30T03:43:31;48366.47;;;-141.90;55.29
5298;BME280;14738;42.668;23.250;2023-08-30T03:45:58;48390.31;;;-141.90;55.44
5298;BME280;14738;42.668;23.250;2023-08-30T03:48:23;48380.38;;;-141.90;53.95
5298;BME280;14738;42.668;23.250;2023-08-30T03:50:49;48366.47;;;-141.90;54.52
5298;BME280;14738;42.668;23.250;2023-08-30T03:53:14;48338.69;;;-141.90;54.89
5298;BME280;14738;42.668;23.250;2023-08-30T03:55:40;48386.34;;;-141.90;55.73
5298;BME280;14738;42.668;23.250;2023-08-30T03:58:06;48328.75;;;-141.90;56.30
5298;BME280;14738;42.668;23.250;2023-08-30T04:00:31;48386.34;;;-141.90;55.77
5298;BME280;14738;42.668;23.250;2023-08-30T04:02:57;48410.16;;;-141.90;55.06
5298;BME280;14738;42.668;23.250;2023-08-30T04:05:23;48410.16;;;-141.90;54.53
5298;BME280;14738;42.668;23.250;2023-08-30T04:07:48;48372.44;;;-141.90;53.99
5298;BME280;14738;42.668;23.250;2023-08-30T04:10:14;48428.03;;;-141.90;52.93
5298;BME280;14738;42.668;23.250;2023-08-30T04:12:39;48392.28;;;-141.90;51.23
5298;BME280;14738;42.668;23.250;2023-08-30T04:15:05;48433.97;;;-141.90;49.14
5298;BME280;14738;42.668;23.250;2023-08-30T04:17:30;48437.94;;;-141.90;47.24
5298;BME280;14738;42.668;23.250;2023-08-30T04:19:56;48366.47;;;-141.90;44.95
5298;BME280;14738;42.668;23.250;2023-08-30T04:22:21;48507.44;;;-141.90;42.61
5298;BME280;14738;42.668;23.250;2023-08-30T04:24:46;48547.13;;;-141.90;41.17
5298;BME280;14738;42.668;23.250;2023-08-30T04:27:15;48541.19;;;-141.90;40.45
5298;BME280;14738;42.668;23.250;2023-08-30T04:29:41;48572.94;;;-141.90;39.49
5298;BME280;14738;42.668;23.250;2023-08-30T04:32:10;48594.78;;;-141.90;39.11
5298;BME280;14738;42.668;23.250;2023-08-30T04:34:35;48600.75;;;-141.90;38.31
5298;BME280;14738;42.668;23.250;2023-08-30T04:37:01;48549.13;;;-141.90;38.88
5298;BME280;14738;42.668;23.250;2023-08-30T04:39:26;48551.09;;;-141.90;39.08
5298;BME280;14738;42.668;23.250;2023-08-30T04:41:52;48477.66;;;-141.90;39.80
5298;BME280;14738;42.668;23.250;2023-08-30T04:44:17;48511.41;;;-141.90;41.11
5298;BME280;14738;42.668;23.250;2023-08-30T04:46:44;48483.59;;;-141.90;41.17
5298;BME280;14738;42.668;23.250;2023-08-30T04:49:10;48481.63;;;-141.90;42.91
5298;BME280;14738;42.668;23.250;2023-08-30T04:51:35;48336.69;;;-141.90;45.02
5298;BME280;14738;42.668;23.250;2023-08-30T04:54:00;48465.75;;;-141.90;46.95
5298;BME280;14738;42.668;23.250;2023-08-30T04:56:26;48416.09;;;-141.90;46.72
5298;BME280;14738;42.668;23.250;2023-08-30T04:58:52;48400.22;;;-141.90;47.40
5298;BME280;14738;42.668;23.250;2023-08-30T05:01:17;48410.16;;;-141.90;47.69
5298;BME280;14738;42.668;23.250;2023-08-30T05:03:42;48412.13;;;-141.90;48.57
5298;BME280;14738;42.668;23.250;2023-08-30T05:06:08;48447.88;;;-141.90;48.08
5298;BME280;14738;42.668;23.250;2023-08-30T05:08:33;48404.19;;;-141.90;49.09
5298;BME280;14738;42.668;23.250;2023-08-30T05:10:59;48426.03;;;-141.90;48.80
5298;BME280;14738;42.668;23.250;2023-08-30T05:13:24;48422.06;;;-141.90;48.60
5298;BME280;14738;42.668;23.250;2023-08-30T05:15:50;48433.97;;;-141.90;47.28
5298;BME280;14738;42.668;23.250;2023-08-30T05:18:15;48489.56;;;-141.90;44.15
5298;BME280;14738;42.668;23.250;2023-08-30T05:20:41;48561.03;;;-141.90;40.63
5298;BME280;14738;42.668;23.250;2023-08-30T05:23:06;48584.84;;;-141.90;38.43
5298;BME280;14738;42.668;23.250;2023-08-30T05:25:32;48610.66;;;-141.90;37.34
5298;BME280;14738;42.668;23.250;2023-08-30T05:27:58;48670.22;;;-141.90;36.21
5298;BME280;14738;42.668;23.250;2023-08-30T05:30:23;48759.56;;;-141.90;33.82
5298;BME280;14738;42.668;23.250;2023-08-30T05:32:49;48787.38;;;-141.90;31.60
5298;BME280;14738;42.668;23.250;2023-08-30T05:35:14;48819.13;;;-141.90;30.52
5298;BME280;14738;42.668;23.250;2023-08-30T05:37:40;48809.22;;;-141.90;30.44
5298;BME280;14738;42.668;23.250;2023-08-30T05:40:06;48840.97;;;-141.90;30.04
5298;BME280;14738;42.668;23.250;2023-08-30T05:42:33;48821.13;;;-141.90;29.81
5298;BME280;14738;42.668;23.250;2023-08-30T05:44:58;48900.53;;;-141.90;28.63
5298;BME280;14738;42.668;23.250;2023-08-30T05:47:24;48888.63;;;-141.90;27.23
5298;BME280;14738;42.668;23.250;2023-08-30T05:49:49;48862.81;;;-141.90;26.39
5298;BME280;14738;42.668;23.250;2023-08-30T05:52:15;48987.91;;;-141.90;25.62
5298;BME280;14738;42.668;23.250;2023-08-30T05:54:43;48898.56;;;-141.90;27.62
5298;BME280;14738;42.668;23.250;2023-08-30T05:57:09;48890.59;;;-141.90;26.75
5298;BME280;14738;42.668;23.250;2023-08-30T05:59:35;48866.78;;;-141.90;28.00
5298;BME280;14738;42.668;23.250;2023-08-30T06:02:01;48888.63;;;-141.90;27.42
5298;BME280;14738;42.668;23.250;2023-08-30T06:04:26;48930.31;;;-141.90;26.43
5298;BME280;14738;42.668;23.250;2023-08-30T06:06:52;48932.31;;;-141.90;27.18
5298;BME280;14738;42.668;23.250;2023-08-30T06:09:17;48844.94;;;-141.90;27.57
5298;BME280;14738;42.668;23.250;2023-08-30T06:11:43;48803.25;;;-141.90;28.52
5298;BME280;14738;42.668;23.250;2023-08-30T06:14:08;48757.59;;;-141.90;29.37
5298;BME280;14738;42.668;23.250;2023-08-30T06:16:33;48837.00;;;-141.90;29.54
5298;BME280;14738;42.668;23.250;2023-08-30T06:18:59;48839.00;;;-141.90;28.30
5298;BME280;14738;42.668;23.250;2023-08-30T06:21:25;48807.22;;;-141.90;28.32
5298;BME280;14738;42.668;23.250;2023-08-30T06:23:51;48920.41;;;-141.90;27.40
5298;BME280;14738;42.668;23.250;2023-08-30T06:26:17;48906.50;;;-141.90;27.61
5298;BME280;14738;42.668;23.250;2023-08-30T06:28:42;48874.72;;;-141.90;26.21
5298;BME280;14738;42.668;23.250;2023-08-30T06:31:08;48886.63;;;-141.90;27.20
5298;BME280;14738;42.668;23.250;2023-08-30T06:33:34;48868.78;;;-141.90;27.34
5298;BME280;14738;42.668;23.250;2023-08-30T06:36:01;48962.09;;;-141.90;26.08
5298;BME280;14738;42.668;23.250;2023-08-30T06:38:26;49005.78;;;-141.90;25.40
5298;BME280;14738;42.668;23.250;2023-08-30T06:40:51;48958.13;;;-141.90;25.96
5298;BME280;14738;42.668;23.250;2023-08-30T06:43:17;48910.47;;;-141.90;25.77
5298;BME280;14738;42.668;23.250;2023-08-30T06:45:43;48898.56;;;-141.90;26.93
5298;BME280;14738;42.668;23.250;2023-08-30T06:48:09;48835.03;;;-141.90;26.86
5298;BME280;14738;42.668;23.250;2023-08-30T06:50:35;48827.06;;;-141.90;26.71
5298;BME280;14738;42.668;23.250;2023-08-30T06:53:02;48797.28;;;-141.90;27.67
5298;BME280;14738;42.668;23.250;2023-08-30T06:55:27;48825.09;;;-141.90;27.09
5298;BME280;14738;42.668;23.250;2023-08-30T06:57:52;48620.59;;;-141.90;28.48
5298;BME280;14738;42.668;23.250;2023-08-30T07:00:18;48779.44;;;-141.90;28.28
5298;BME280;14738;42.668;23.250;2023-08-30T07:02:44;48741.69;;;-141.90;28.83
5298;BME280;14738;42.668;23.250;2023-08-30T07:05:11;48696.03;;;-141.90;30.19
5298;BME280;14738;42.668;23.250;2023-08-30T07:07:37;48713.91;;;-141.90;31.14
5298;BME280;14738;42.668;23.250;2023-08-30T07:10:02;48660.31;;;-141.90;30.66
5298;BME280;14738;42.668;23.250;2023-08-30T07:12:28;48694.06;;;-141.90;30.45
5298;BME280;14738;42.668;23.250;2023-08-30T07:14:53;48719.88;;;-141.90;30.54
5298;BME280;14738;42.668;23.250;2023-08-30T07:17:19;48672.22;;;-141.90;31.07
5298;BME280;14738;42.668;23.250;2023-08-30T07:19:44;48690.09;;;-141.90;31.52
5298;BME280;14738;42.668;23.250;2023-08-30T07:22:10;48684.13;;;-141.90;32.00
5298;BME280;14738;42.668;23.250;2023-08-30T07:24:36;48632.50;;;-141.90;32.40
5298;BME280;14738;42.668;23.250;2023-08-30T07:27:02;48600.75;;;-141.90;32.29
5298;BME280;14738;42.668;23.250;2023-08-30T07:29:28;48650.38;;;-141.90;32.83
5298;BME280;14738;42.668;23.250;2023-08-30T07:31:53;48660.31;;;-141.90;32.40
5298;BME280;14738;42.668;23.250;2023-08-30T07:34:20;48672.22;;;-141.90;31.72
5298;BME280;14738;42.668;23.250;2023-08-30T07:36:45;48672.22;;;-141.90;32.83
5298;BME280;14738;42.668;23.250;2023-08-30T07:39:11;48636.47;;;-141.90;33.18
5298;BME280;14738;42.668;23.250;2023-08-30T07:41:36;48680.16;;;-141.90;31.94
5298;BME280;14738;42.668;23.250;2023-08-30T07:44:02;48660.31;;;-141.90;31.69
5298;BME280;14738;42.668;23.250;2023-08-30T07:46:28;48652.38;;;-141.90;32.97
5298;BME280;14738;42.668;23.250;2023-08-30T07:48:54;48642.44;;;-141.90;32.85
5298;BME280;14738;42.668;23.250;2023-08-30T07:51:19;48608.69;;;-141.90;33.37
5298;BME280;14738;42.668;23.250;2023-08-30T07:53:45;48612.66;;;-141.90;32.37
5298;BME280;14738;42.668;23.250;2023-08-30T07:56:10;48610.66;;;-141.90;32.71
5298;BME280;14738;42.668;23.250;2023-08-30T07:58:36;48624.56;;;-141.90;33.33
5298;BME280;14738;42.668;23.250;2023-08-30T08:01:01;48622.59;;;-141.90;32.72
5298;BME280;14738;42.668;23.250;2023-08-30T08:03:27;48640.44;;;-141.90;32.08
5298;BME280;14738;42.668;23.250;2023-08-30T08:05:52;48648.38;;;-141.90;32.84
5298;BME280;14738;42.668;23.250;2023-08-30T08:08:18;48660.31;;;-141.90;31.32
5298;BME280;14738;42.668;23.250;2023-08-30T08:10:43;48684.13;;;-141.90;30.50
5298;BME280;14738;42.668;23.250;2023-08-30T08:13:09;48644.41;;;-141.90;30.89
5298;BME280;14738;42.668;23.250;2023-08-30T08:15:35;48680.16;;;-141.90;30.88
5298;BME280;14738;42.668;23.250;2023-08-30T08:18:01;48725.81;;;-141.90;30.13
5298;BME280;14738;42.668;23.250;2023-08-30T08:20:28;48656.34;;;-141.90;31.13
5298;BME280;14738;42.668;23.250;2023-08-30T08:22:54;48664.28;;;-141.90;31.19
5298;BME280;14738;42.668;23.250;2023-08-30T08:25:20;48654.34;;;-141.90;31.51
5298;BME280;14738;42.668;23.250;2023-08-30T08:27:47;48662.28;;;-141.90;31.00
5298;BME280;14738;42.668;23.250;2023-08-30T08:30:14;48703.97;;;-141.90;30.87
5298;BME280;14738;42.668;23.250;2023-08-30T08:32:39;48660.31;;;-141.90;31.06
5298;BME280;14738;42.668;23.250;2023-08-30T08:35:05;48696.03;;;-141.90;31.74
5298;BME280;14738;42.668;23.250;2023-08-30T08:37:31;48727.81;;;-141.90;30.34
5298;BME280;14738;42.668;23.250;2023-08-30T08:39:56;48696.03;;;-141.90;31.18
5298;BME280;14738;42.668;23.250;2023-08-30T08:42:22;48682.13;;;-141.90;30.67
5298;BME280;14738;42.668;23.250;2023-08-30T08:44:50;48700.00;;;-141.90;31.25
5298;BME280;14738;42.668;23.250;2023-08-30T08:47:19;48433.97;;;-141.90;31.25
5298;BME280;14738;42.668;23.250;2023-08-30T08:49:44;48700.00;;;-141.90;31.05
5298;BME280;14738;42.668;23.250;2023-08-30T08:52:11;48690.09;;;-141.90;30.91
5298;BME280;14738;42.668;23.250;2023-08-30T08:54:39;48709.94;;;-141.90;30.75
5298;BME280;14738;42.668;23.250;2023-08-30T08:57:06;48668.25;;;-141.90;31.46
5298;BME280;14738;42.668;23.250;2023-08-30T08:59:32;48644.41;;;-141.90;31.22
5298;BME280;14738;42.668;23.250;2023-08-30T09:01:59;48692.06;;;-141.90;30.81
5298;BME280;14738;42.668;23.250;2023-08-30T09:04:25;48696.03;;;-141.90;30.42
5298;BME280;14738;42.668;23.250;2023-08-30T09:06:51;48779.44;;;-141.90;29.75
5298;BME280;14738;42.668;23.250;2023-08-30T09:09:17;48751.63;;;-141.90;29.71
5298;BME280;14738;42.668;23.250;2023-08-30T09:11:42;48777.44;;;-141.90;30.01
5298;BME280;14738;42.668;23.250;2023-08-30T09:14:11;48789.34;;;-141.90;29.46
5298;BME280;14738;42.668;23.250;2023-08-30T09:16:36;48739.72;;;-141.90;30.32
5298;BME280;14738;42.668;23.250;2023-08-30T09:19:03;48777.44;;;-141.90;29.36
5298;BME280;14738;42.668;23.250;2023-08-30T09:21:29;48751.63;;;-141.90;29.02
5298;BME280;14738;42.668;23.250;2023-08-30T09:24:03;48763.53;;;-141.90;29.83
5298;BME280;14738;42.668;23.250;2023-08-30T09:26:30;48785.38;;;-141.90;29.19
5298;BME280;14738;42.668;23.250;2023-08-30T09:29:05;48771.47;;;-141.90;29.86
5298;BME280;14738;42.668;23.250;2023-08-30T09:31:35;48763.53;;;-141.90;28.23
5298;BME280;14738;42.668;23.250;2023-08-30T09:34:02;48811.19;;;-141.90;27.23
5298;BME280;14738;42.668;23.250;2023-08-30T09:36:35;48777.44;;;-141.90;27.36
5298;BME280;14738;42.668;23.250;2023-08-30T09:39:14;48779.44;;;-141.90;28.75
5298;BME280;14738;42.668;23.250;2023-08-30T09:41:47;48831.03;;;-141.90;27.02
5298;BME280;14738;42.668;23.250;2023-08-30T09:44:19;48803.25;;;-141.90;27.45
5298;BME280;14738;42.668;23.250;2023-08-30T09:46:49;48795.31;;;-141.90;28.01
5298;BME280;14738;42.668;23.250;2023-08-30T09:49:26;48791.34;;;-141.90;27.47
5298;BME280;14738;42.668;23.250;2023-08-30T09:51:53;48795.31;;;-141.90;26.95
5298;BME280;14738;42.668;23.250;2023-08-30T09:54:20;48860.81;;;-141.90;26.49
5298;BME280;14738;42.668;23.250;2023-08-30T09:56:46;48815.16;;;-141.90;27.50
5298;BME280;14738;42.668;23.250;2023-08-30T09:59:13;48809.22;;;-141.90;27.61
5298;BME280;14738;42.668;23.250;2023-08-30T10:01:43;48807.22;;;-141.90;27.60
5298;BME280;14738;42.668;23.250;2023-08-30T10:04:09;48743.69;;;-141.90;28.81
5298;BME280;14738;42.668;23.250;2023-08-30T10:06:37;48765.53;;;-141.90;29.35
5298;BME280;14738;42.668;23.250;2023-08-30T10:09:03;48779.44;;;-141.90;28.77
5298;BME280;14738;42.668;23.250;2023-08-30T10:11:32;48743.69;;;-141.90;28.81
5298;BME280;14738;42.668;23.250;2023-08-30T10:14:00;48767.50;;;-141.90;28.63
5298;BME280;14738;42.668;23.250;2023-08-30T10:16:26;48723.84;;;-141.90;29.28
5298;BME280;14738;42.668;23.250;2023-08-30T10:19:02;48700.00;;;-141.90;28.91
5298;BME280;14738;42.668;23.250;2023-08-30T10:21:29;48807.22;;;-141.90;28.86
5298;BME280;14738;42.668;23.250;2023-08-30T10:23:56;48797.28;;;-141.90;28.00
5298;BME280;14738;42.668;23.250;2023-08-30T10:26:24;48767.50;;;-141.90;28.10
5298;BME280;14738;42.668;23.250;2023-08-30T10:28:55;48751.63;;;-141.90;27.93
5298;BME280;14738;42.668;23.250;2023-08-30T10:31:22;48779.44;;;-141.90;27.60
5298;BME280;14738;42.668;23.250;2023-08-30T10:33:52;48803.25;;;-141.90;27.35
5298;BME280;14738;42.668;23.250;2023-08-30T10:36:25;48739.72;;;-141.90;27.14
5298;BME280;14738;42.668;23.250;2023-08-30T10:38:52;48803.25;;;-141.90;27.29
5298;BME280;14738;42.668;23.250;2023-08-30T10:41:25;48795.31;;;-141.90;26.35
5298;BME280;14738;42.668;23.250;2023-08-30T10:43:55;48799.28;;;-141.90;25.67
5298;BME280;14738;42.668;23.250;2023-08-30T10:46:34;48813.19;;;-141.90;26.64
5298;BME280;14738;42.668;23.250;2023-08-30T10:49:14;48864.81;;;-141.90;25.78
5298;BME280;14738;42.668;23.250;2023-08-30T10:51:41;48858.84;;;-141.90;25.34
5298;BME280;14738;42.668;23.250;2023-08-30T10:54:15;48886.63;;;-141.90;25.12
5298;BME280;14738;42.668;23.250;2023-08-30T10:59:19;48835.03;;;-141.90;26.16
5298;BME280;14738;42.668;23.250;2023-08-30T11:01:46;48827.06;;;-141.90;26.09
5298;BME280;14738;42.668;23.250;2023-08-30T11:04:15;48878.69;;;-141.90;25.02
5298;BME280;14738;42.668;23.250;2023-08-30T11:06:47;48886.63;;;-141.90;24.82
5298;BME280;14738;42.668;23.250;2023-08-30T11:09:14;48900.53;;;-141.90;23.88
5298;BME280;14738;42.668;23.250;2023-08-30T11:11:40;48846.94;;;-141.90;23.48
5298;BME280;14738;42.668;23.250;2023-08-30T11:14:08;48876.72;;;-141.90;23.38
5298;BME280;14738;42.668;23.250;2023-08-30T11:16:35;48906.50;;;-141.90;23.06
5298;BME280;14738;42.668;23.250;2023-08-30T11:19:04;48904.50;;;-141.90;23.15
5298;BME280;14738;42.668;23.250;2023-08-30T11:21:30;48898.56;;;-141.90;22.16
5298;BME280;14738;42.668;23.250;2023-08-30T11:23:56;48922.38;;;-141.90;21.85
5298;BME280;14738;42.668;23.250;2023-08-30T11:26:22;48884.66;;;-141.90;21.50
5298;BME280;14738;42.668;23.250;2023-08-30T11:28:47;48884.66;;;-141.90;21.63
5298;BME280;14738;42.668;23.250;2023-08-30T11:31:25;48902.53;;;-141.90;22.34
5298;BME280;14738;42.668;23.250;2023-08-30T11:33:54;48904.50;;;-141.90;21.92
5298;BME280;14738;42.668;23.250;2023-08-30T11:36:22;48850.91;;;-141.90;21.78
5298;BME280;14738;42.668;23.250;2023-08-30T11:38:51;48842.97;;;-141.90;21.76
5298;BME280;14738;42.668;23.250;2023-08-30T11:41:22;48854.88;;;-141.90;23.18
5298;BME280;14738;42.668;23.250;2023-08-30T11:43:48;48866.78;;;-141.90;22.11
5298;BME280;14738;42.668;23.250;2023-08-30T11:46:14;48840.97;;;-141.90;21.86
5298;BME280;14738;42.668;23.250;2023-08-30T11:48:40;48862.81;;;-141.90;21.88
5298;BME280;14738;42.668;23.250;2023-08-30T11:51:07;48880.69;;;-141.90;22.25
5298;BME280;14738;42.668;23.250;2023-08-30T11:53:33;48821.13;;;-141.90;22.60
5298;BME280;14738;42.668;23.250;2023-08-30T11:55:59;48882.66;;;-141.90;22.77
5298;BME280;14738;42.668;23.250;2023-08-30T11:58:24;48886.63;;;-141.90;23.13
5298;BME280;14738;42.668;23.250;2023-08-30T12:00:51;48862.81;;;-141.90;22.20
5298;BME280;14738;42.668;23.250;2023-08-30T12:03:18;48874.72;;;-141.90;21.99
5298;BME280;14738;42.668;23.250;2023-08-30T12:05:48;48870.75;;;-141.90;22.11
5298;BME280;14738;42.668;23.250;2023-08-30T12:08:24;48874.72;;;-141.90;21.20
5298;BME280;14738;42.668;23.250;2023-08-30T12:10:50;48862.81;;;-141.90;21.39
5298;BME280;14738;42.668;23.250;2023-08-30T12:13:30;48833.03;;;-141.90;21.70
5298;BME280;14738;42.668;23.250;2023-08-30T12:15:57;48813.19;;;-141.90;21.09
5298;BME280;14738;42.668;23.250;2023-08-30T12:18:27;48860.81;;;-141.90;21.26
5298;BME280;14738;42.668;23.250;2023-08-30T12:21:00;48878.69;;;-141.90;20.87
5298;BME280;14738;42.668;23.250;2023-08-30T12:23:27;48882.66;;;-141.90;21.00
5298;BME280;14738;42.668;23.250;2023-08-30T12:26:06;48886.63;;;-141.90;21.15
5298;BME280;14738;42.668;23.250;2023-08-30T12:28:37;48870.75;;;-141.90;20.23
5298;BME280;14738;42.668;23.250;2023-08-30T12:31:03;48805.25;;;-141.90;20.26
5298;BME280;14738;42.668;23.250;2023-08-30T12:33:30;48850.91;;;-141.90;20.69
5298;BME280;14738;42.668;23.250;2023-08-30T12:35:55;48896.56;;;-141.90;19.93
5298;BME280;14738;42.668;23.250;2023-08-30T12:38:22;48878.69;;;-141.90;19.60
5298;BME280;14738;42.668;23.250;2023-08-30T12:40:49;48854.88;;;-141.90;19.72
5298;BME280;14738;42.668;23.250;2023-08-30T12:43:16;48864.81;;;-141.90;20.31
5298;BME280;14738;42.668;23.250;2023-08-30T12:45:42;48835.03;;;-141.90;19.24
5298;BME280;14738;42.668;23.250;2023-08-30T12:48:09;48866.78;;;-141.90;20.00
5298;BME280;14738;42.668;23.250;2023-08-30T12:50:36;48886.63;;;-141.90;20.39